sensor_id;sensor_type;location;lat;lon;timestamp;pressure;altitude;pressure_sealevel;temperature;humidity
61384;BME280;63511;49.346;8.798;2023-04-25T00:00:19;99587.53;;;11.48;79.63
61384;BME280;63511;49.346;8.798;2023-04-25T00:02:45;99581.28;;;11.58;79.59
61384;BME280;63511;49.346;8.798;2023-04-25T00:05:12;99583.16;;;11.78;79.59
61384;BME280;63511;49.346;8.798;2023-04-25T00:07:40;99585.22;;;11.69;78.74
61384;BME280;63511;49.346;8.798;2023-04-25T00:10:08;99582.31;;;11.29;80.57
61384;BME280;63511;49.346;8.798;2023-04-25T00:12:37;99580.72;;;11.31;80.33
61384;BME280;63511;49.346;8.798;2023-04-25T00:15:05;99581.69;;;11.49;79.87
61384;BME280;63511;49.346;8.798;2023-04-25T00:17:31;99585.53;;;11.59;79.51
61384;BME280;63511;49.346;8.798;2023-04-25T00:20:00;99583.16;;;11.78;79.33
61384;BME280;63511;49.346;8.798;2023-04-25T00:22:29;99577.78;;;11.56;79.34
61384;BME280;63511;49.346;8.798;2023-04-25T00:24:56;99578.88;;;11.61;79.15
61384;BME280;63511;49.346;8.798;2023-04-25T00:27:25;99585.38;;;11.56;79.09
61384;BME280;63511;49.346;8.798;2023-04-25T00:29:53;99574.78;;;11.47;80.32
61384;BME280;63511;49.346;8.798;2023-04-25T00:32:19;99585.53;;;11.27;80.56
61384;BME280;63511;49.346;8.798;2023-04-25T00:34:46;99584.84;;;11.29;80.52
61384;BME280;63511;49.346;8.798;2023-04-25T00:37:12;99582.38;;;11.47;79.54
61384;BME280;63511;49.346;8.798;2023-04-25T00:39:39;99586.97;;;11.38;79.57
61384;BME280;63511;49.346;8.798;2023-04-25T00:42:05;99577.78;;;11.56;79.76
61384;BME280;63511;49.346;8.798;2023-04-25T00:44:33;99571.16;;;11.42;80.32
61384;BME280;63511;49.346;8.798;2023-04-25T00:47:01;99580.25;;;11.55;80.44
61384;BME280;63511;49.346;8.798;2023-04-25T00:49:28;99578.34;;;11.18;80.57
61384;BME280;63511;49.346;8.798;2023-04-25T00:51:54;99569.81;;;11.32;79.73
61384;BME280;63511;49.346;8.798;2023-04-25T00:54:21;99569.34;;;11.39;79.57
61384;BME280;63511;49.346;8.798;2023-04-25T00:56:48;99570.38;;;11.43;80.11
61384;BME280;63511;49.346;8.798;2023-04-25T00:59:14;99571.03;;;11.39;80.45
61384;BME280;63511;49.346;8.798;2023-04-25T01:01:41;99571.88;;;11.23;80.28
61384;BME280;63511;49.346;8.798;2023-04-25T01:04:10;99579.47;;;11.39;81.06
61384;BME280;63511;49.346;8.798;2023-04-25T01:06:36;99575.56;;;11.30;80.98
61384;BME280;63511;49.346;8.798;2023-04-25T01:09:03;99569.97;;;11.35;80.79
61384;BME280;63511;49.346;8.798;2023-04-25T01:11:30;99566.34;;;11.46;80.00
61384;BME280;63511;49.346;8.798;2023-04-25T01:13:57;99567.75;;;11.41;80.26
61384;BME280;63511;49.346;8.798;2023-04-25T01:16:23;99572.72;;;11.56;80.21
61384;BME280;63511;49.346;8.798;2023-04-25T01:18:50;99571.03;;;11.39;80.40
61384;BME280;63511;49.346;8.798;2023-04-25T01:21:19;99568.94;;;11.48;80.81
61384;BME280;63511;49.346;8.798;2023-04-25T01:23:45;99567.63;;;11.38;80.19
61384;BME280;63511;49.346;8.798;2023-04-25T01:26:12;99564.22;;;11.38;80.41
61384;BME280;63511;49.346;8.798;2023-04-25T01:28:39;99560.25;;;11.75;78.53
61384;BME280;63511;49.346;8.798;2023-04-25T01:31:06;99556.34;;;11.82;79.53
61384;BME280;63511;49.346;8.798;2023-04-25T01:33:33;99556.75;;;11.89;78.21
61384;BME280;63511;49.346;8.798;2023-04-25T01:36:00;99554.34;;;11.92;77.54
61384;BME280;63511;49.346;8.798;2023-04-25T01:38:28;99552.34;;;12.03;nan
61384;BME280;63511;49.346;8.798;2023-04-25T01:40:54;99552.69;;;11.75;78.88
61384;BME280;63511;49.346;8.798;2023-04-25T01:43:21;99553.00;;;11.49;79.14
61384;BME280;63511;49.346;8.798;2023-04-25T01:45:48;99557.94;;;11.64;79.16
61384;BME280;63511;49.346;8.798;2023-04-25T01:48:15;99561.50;;;11.51;80.37
61384;BME280;63511;49.346;8.798;2023-04-25T01:50:42;99555.03;;;11.56;80.18
61384;BME280;63511;49.346;8.798;2023-04-25T01:53:09;99559.84;;;11.84;77.71
61384;BME280;63511;49.346;8.798;2023-04-25T01:55:37;99555.00;;;11.88;77.49
61384;BME280;63511;49.346;8.798;2023-04-25T01:58:03;99557.19;;;11.81;78.25
61384;BME280;63511;49.346;8.798;2023-04-25T02:00:34;99555.34;;;11.46;80.40
61384;BME280;63511;49.346;8.798;2023-04-25T02:03:03;99559.47;;;11.44;81.05
61384;BME280;63511;49.346;8.798;2023-04-25T02:05:33;99556.88;;;11.26;81.68
61384;BME280;63511;49.346;8.798;2023-04-25T02:08:00;99558.06;;;11.17;81.94
61384;BME280;63511;49.346;8.798;2023-04-25T02:10:26;99560.44;;;11.14;81.73
61384;BME280;63511;49.346;8.798;2023-04-25T02:12:54;99559.31;;;11.08;81.68
61384;BME280;63511;49.346;8.798;2023-04-25T02:15:21;99562.00;;;11.12;81.36
61384;BME280;63511;49.346;8.798;2023-04-25T02:17:47;99554.34;;;11.26;81.17
61384;BME280;63511;49.346;8.798;2023-04-25T02:20:14;99560.72;;;11.36;80.71
61384;BME280;63511;49.346;8.798;2023-04-25T02:22:42;99550.78;;;11.39;80.63
61384;BME280;63511;49.346;8.798;2023-04-25T02:25:09;99552.44;;;11.22;81.43
61384;BME280;63511;49.346;8.798;2023-04-25T02:27:36;99554.19;;;11.07;81.66
61384;BME280;63511;49.346;8.798;2023-04-25T02:30:05;99559.47;;;11.44;81.13
61384;BME280;63511;49.346;8.798;2023-04-25T02:32:32;99552.69;;;11.43;80.66
61384;BME280;63511;49.346;8.798;2023-04-25T02:34:59;99546.84;;;11.44;81.29
61384;BME280;63511;49.346;8.798;2023-04-25T02:37:28;99547.84;;;11.47;81.06
61384;BME280;63511;49.346;8.798;2023-04-25T02:39:55;99545.88;;;11.26;81.35
61384;BME280;63511;49.346;8.798;2023-04-25T02:42:21;99545.75;;;11.23;81.88
61384;BME280;63511;49.346;8.798;2023-04-25T02:44:48;99548.97;;;11.20;81.21
61384;BME280;63511;49.346;8.798;2023-04-25T02:47:16;99546.84;;;11.28;80.79
61384;BME280;63511;49.346;8.798;2023-04-25T02:49:43;99546.19;;;11.32;81.53
61384;BME280;63511;49.346;8.798;2023-04-25T02:52:10;99546.97;;;11.15;82.44
61384;BME280;63511;49.346;8.798;2023-04-25T02:54:37;99546.06;;;11.13;82.15
61384;BME280;63511;49.346;8.798;2023-04-25T02:57:04;99543.19;;;11.06;81.71
61384;BME280;63511;49.346;8.798;2023-04-25T02:59:31;99543.03;;;11.36;81.00
61384;BME280;63511;49.346;8.798;2023-04-25T03:01:57;99548.50;;;11.27;81.33
61384;BME280;63511;49.346;8.798;2023-04-25T03:04:25;99546.06;;;11.13;81.73
61384;BME280;63511;49.346;8.798;2023-04-25T03:06:52;99549.06;;;11.22;82.29
61384;BME280;63511;49.346;8.798;2023-04-25T03:09:19;99545.28;;;11.14;81.77
61384;BME280;63511;49.346;8.798;2023-04-25T03:11:46;99540.38;;;11.17;81.47
61384;BME280;63511;49.346;8.798;2023-04-25T03:14:12;99542.25;;;11.21;81.74
61384;BME280;63511;49.346;8.798;2023-04-25T03:16:39;99535.72;;;11.08;82.06
61384;BME280;63511;49.346;8.798;2023-04-25T03:19:06;99544.44;;;10.82;83.15
61384;BME280;63511;49.346;8.798;2023-04-25T03:21:36;99542.81;;;10.68;84.37
61384;BME280;63511;49.346;8.798;2023-04-25T03:24:04;99537.59;;;10.96;82.28
61384;BME280;63511;49.346;8.798;2023-04-25T03:26:30;99528.50;;;10.99;82.94
61384;BME280;63511;49.346;8.798;2023-04-25T03:28:57;99535.06;;;10.96;83.17
61384;BME280;63511;49.346;8.798;2023-04-25T03:31:23;99536.06;;;10.83;84.10
61384;BME280;63511;49.346;8.798;2023-04-25T03:33:50;99537.03;;;10.85;83.61
61384;BME280;63511;49.346;8.798;2023-04-25T03:36:16;99537.38;;;11.07;83.12
61384;BME280;63511;49.346;8.798;2023-04-25T03:38:44;99531.03;;;10.99;83.12
61384;BME280;63511;49.346;8.798;2023-04-25T03:41:11;99534.59;;;11.03;83.01
61384;BME280;63511;49.346;8.798;2023-04-25T03:43:38;99537.19;;;11.04;82.77
61384;BME280;63511;49.346;8.798;2023-04-25T03:46:05;99536.72;;;11.12;82.13
61384;BME280;63511;49.346;8.798;2023-04-25T03:48:31;99528.81;;;10.89;84.56
61384;BME280;63511;49.346;8.798;2023-04-25T03:50:58;99538.47;;;10.96;83.89
61384;BME280;63511;49.346;8.798;2023-04-25T03:53:25;99544.13;;;10.76;84.75
61384;BME280;63511;49.346;8.798;2023-04-25T03:55:53;99548.69;;;10.67;84.90
61384;BME280;63511;49.346;8.798;2023-04-25T03:58:19;99553.69;;;10.82;84.84
61384;BME280;63511;49.346;8.798;2023-04-25T04:00:48;99541.38;;;11.04;84.16
61384;BME280;63511;49.346;8.798;2023-04-25T04:03:14;99538.56;;;10.98;83.00
61384;BME280;63511;49.346;8.798;2023-04-25T04:05:41;99540.41;;;10.86;84.77
61384;BME280;63511;49.346;8.798;2023-04-25T04:08:07;99546.34;;;10.86;84.63
61384;BME280;63511;49.346;8.798;2023-04-25T04:10:34;99540.22;;;10.97;82.80
61384;BME280;63511;49.346;8.798;2023-04-25T04:13:05;99543.28;;;10.92;84.44
61384;BME280;63511;49.346;8.798;2023-04-25T04:15:31;99540.88;;;10.79;84.80
61384;BME280;63511;49.346;8.798;2023-04-25T04:17:58;99544.44;;;10.82;84.42
61384;BME280;63511;49.346;8.798;2023-04-25T04:20:27;99540.97;;;10.80;85.25
61384;BME280;63511;49.346;8.798;2023-04-25T04:22:54;99550.84;;;10.92;83.94
61384;BME280;63511;49.346;8.798;2023-04-25T04:25:20;99546.50;;;10.89;84.68
61384;BME280;63511;49.346;8.798;2023-04-25T04:27:47;99553.28;;;10.90;84.74
61384;BME280;63511;49.346;8.798;2023-04-25T04:30:15;99559.78;;;11.01;83.39
61384;BME280;63511;49.346;8.798;2023-04-25T04:32:41;99554.56;;;11.15;84.55
61384;BME280;63511;49.346;8.798;2023-04-25T04:35:08;99551.16;;;11.14;84.52
61384;BME280;63511;49.346;8.798;2023-04-25T04:37:36;99552.13;;;11.32;83.80
61384;BME280;63511;49.346;8.798;2023-04-25T04:40:03;99555.63;;;11.34;82.77
61384;BME280;63511;49.346;8.798;2023-04-25T04:42:30;99563.09;;;11.17;84.28
61384;BME280;63511;49.346;8.798;2023-04-25T04:44:56;99567.59;;;11.06;83.92
61384;BME280;63511;49.346;8.798;2023-04-25T04:47:25;99565.88;;;11.37;83.34
61384;BME280;63511;49.346;8.798;2023-04-25T04:49:55;99567.53;;;11.37;82.93
61384;BME280;63511;49.346;8.798;2023-04-25T04:52:22;99568.16;;;11.33;82.87
61384;BME280;63511;49.346;8.798;2023-04-25T04:54:48;99573.88;;;11.29;82.70
61384;BME280;63511;49.346;8.798;2023-04-25T04:57:15;99577.09;;;11.26;83.21
61384;BME280;63511;49.346;8.798;2023-04-25T04:59:42;99581.75;;;11.02;84.37
61384;BME280;63511;49.346;8.798;2023-04-25T05:02:09;99582.66;;;11.04;84.84
61384;BME280;63511;49.346;8.798;2023-04-25T05:04:37;99584.44;;;11.22;84.46
61384;BME280;63511;49.346;8.798;2023-04-25T05:07:03;99591.47;;;11.27;83.66
61384;BME280;63511;49.346;8.798;2023-04-25T05:09:30;99594.38;;;11.19;84.66
61384;BME280;63511;49.346;8.798;2023-04-25T05:11:56;99593.44;;;11.33;84.27
61384;BME280;63511;49.346;8.798;2023-04-25T05:14:23;99593.13;;;11.27;83.85
61384;BME280;63511;49.346;8.798;2023-04-25T05:16:49;99588.78;;;11.40;83.44
61384;BME280;63511;49.346;8.798;2023-04-25T05:19:16;99594.06;;;11.13;83.19
61384;BME280;63511;49.346;8.798;2023-04-25T05:21:44;99592.16;;;11.41;83.07
61384;BME280;63511;49.346;8.798;2023-04-25T05:24:10;99589.81;;;11.60;82.09
61384;BME280;63511;49.346;8.798;2023-04-25T05:26:37;99590.84;;;11.47;82.46
61384;BME280;63511;49.346;8.798;2023-04-25T05:29:04;99595.72;;;11.61;82.09
61384;BME280;63511;49.346;8.798;2023-04-25T05:31:31;99591.69;;;11.64;81.88
61384;BME280;63511;49.346;8.798;2023-04-25T05:34:00;99594.06;;;11.61;82.43
61384;BME280;63511;49.346;8.798;2023-04-25T05:36:26;99584.13;;;11.64;82.54
61384;BME280;63511;49.346;8.798;2023-04-25T05:38:54;99594.00;;;11.60;83.15
61384;BME280;63511;49.346;8.798;2023-04-25T05:41:22;99592.94;;;11.72;81.52
61384;BME280;63511;49.346;8.798;2023-04-25T05:43:49;99587.97;;;11.58;82.31
61384;BME280;63511;49.346;8.798;2023-04-25T05:46:15;99590.28;;;11.37;83.05
61384;BME280;63511;49.346;8.798;2023-04-25T05:48:42;99587.59;;;11.18;84.47
61384;BME280;63511;49.346;8.798;2023-04-25T05:51:09;99585.94;;;11.18;84.18
61384;BME280;63511;49.346;8.798;2023-04-25T05:53:35;99589.81;;;11.44;83.09
61384;BME280;63511;49.346;8.798;2023-04-25T05:56:04;99587.66;;;11.68;82.07
61384;BME280;63511;49.346;8.798;2023-04-25T05:58:30;99593.38;;;11.80;82.48
61384;BME280;63511;49.346;8.798;2023-04-25T06:00:57;99587.91;;;11.88;82.14
61384;BME280;63511;49.346;8.798;2023-04-25T06:03:24;99594.16;;;11.79;82.29
61384;BME280;63511;49.346;8.798;2023-04-25T06:05:51;99590.09;;;11.99;81.60
61384;BME280;63511;49.346;8.798;2023-04-25T06:08:17;99592.53;;;12.31;79.07
61384;BME280;63511;49.346;8.798;2023-04-25T06:10:44;99598.25;;;12.62;76.45
61384;BME280;63511;49.346;8.798;2023-04-25T06:13:12;99602.78;;;12.69;75.84
61384;BME280;63511;49.346;8.798;2023-04-25T06:15:38;99604.41;;;12.67;74.87
61384;BME280;63511;49.346;8.798;2023-04-25T06:18:05;99612.50;;;12.60;74.89
61384;BME280;63511;49.346;8.798;2023-04-25T06:20:31;99610.25;;;12.66;75.06
61384;BME280;63511;49.346;8.798;2023-04-25T06:22:58;99610.50;;;12.53;76.36
61384;BME280;63511;49.346;8.798;2023-04-25T06:25:25;99604.53;;;12.70;73.67
61384;BME280;63511;49.346;8.798;2023-04-25T06:27:51;99606.78;;;12.82;73.10
61384;BME280;63511;49.346;8.798;2023-04-25T06:30:19;99605.03;;;12.81;74.41
61384;BME280;63511;49.346;8.798;2023-04-25T06:32:48;99601.81;;;12.48;76.59
61384;BME280;63511;49.346;8.798;2023-04-25T06:35:15;99604.53;;;12.17;78.81
61384;BME280;63511;49.346;8.798;2023-04-25T06:37:41;99610.09;;;11.94;77.43
61384;BME280;63511;49.346;8.798;2023-04-25T06:40:08;99601.78;;;12.30;77.22
61384;BME280;63511;49.346;8.798;2023-04-25T06:42:35;99607.97;;;12.19;76.53
61384;BME280;63511;49.346;8.798;2023-04-25T06:45:02;99601.13;;;12.17;76.79
61384;BME280;63511;49.346;8.798;2023-04-25T06:47:30;99606.47;;;12.76;75.87
61384;BME280;63511;49.346;8.798;2023-04-25T06:49:57;99604.13;;;12.10;80.37
61384;BME280;63511;49.346;8.798;2023-04-25T06:52:23;99613.22;;;12.22;76.18
61384;BME280;63511;49.346;8.798;2023-04-25T06:54:50;99612.25;;;12.91;76.57
61384;BME280;63511;49.346;8.798;2023-04-25T06:57:16;99607.97;;;12.53;77.16
61384;BME280;63511;49.346;8.798;2023-04-25T06:59:43;99619.69;;;12.69;75.75
61384;BME280;63511;49.346;8.798;2023-04-25T07:02:09;99610.91;;;13.15;73.48
61384;BME280;63511;49.346;8.798;2023-04-25T07:04:37;99624.97;;;12.73;75.44
61384;BME280;63511;49.346;8.798;2023-04-25T07:07:04;99624.69;;;13.22;73.21
61384;BME280;63511;49.346;8.798;2023-04-25T07:09:31;99615.97;;;13.35;71.56
61384;BME280;63511;49.346;8.798;2023-04-25T07:11:58;99619.09;;;13.29;72.41
61384;BME280;63511;49.346;8.798;2023-04-25T07:14:26;99624.28;;;13.13;71.16
61384;BME280;63511;49.346;8.798;2023-04-25T07:16:52;99626.13;;;12.62;73.99
61384;BME280;63511;49.346;8.798;2023-04-25T07:19:22;99617.03;;;13.21;71.30
61384;BME280;63511;49.346;8.798;2023-04-25T07:21:53;99623.91;;;13.05;71.62
61384;BME280;63511;49.346;8.798;2023-04-25T07:24:19;99618.22;;;13.29;71.86
61384;BME280;63511;49.346;8.798;2023-04-25T07:26:46;99618.59;;;13.36;72.42
61384;BME280;63511;49.346;8.798;2023-04-25T07:29:12;99620.06;;;13.31;71.74
61384;BME280;63511;49.346;8.798;2023-04-25T07:31:39;99622.19;;;13.41;70.92
61384;BME280;63511;49.346;8.798;2023-04-25T07:34:05;99629.72;;;13.40;71.96
61384;BME280;63511;49.346;8.798;2023-04-25T07:36:32;99633.72;;;13.54;71.66
61384;BME280;63511;49.346;8.798;2023-04-25T07:39:00;99631.09;;;13.14;70.38
61384;BME280;63511;49.346;8.798;2023-04-25T07:41:26;99628.25;;;12.90;71.52
61384;BME280;63511;49.346;8.798;2023-04-25T07:43:53;99632.75;;;13.13;71.88
61384;BME280;63511;49.346;8.798;2023-04-25T07:46:20;99632.09;;;12.82;72.01
61384;BME280;63511;49.346;8.798;2023-04-25T07:48:46;99637.19;;;12.82;71.71
61384;BME280;63511;49.346;8.798;2023-04-25T07:51:13;99641.09;;;12.75;72.57
61384;BME280;63511;49.346;8.798;2023-04-25T07:53:39;99650.56;;;12.62;71.90
61384;BME280;63511;49.346;8.798;2023-04-25T07:56:07;99652.31;;;12.29;73.30
61384;BME280;63511;49.346;8.798;2023-04-25T07:58:34;99650.56;;;12.62;73.90
61384;BME280;63511;49.346;8.798;2023-04-25T08:01:01;99650.63;;;12.46;73.61
61384;BME280;63511;49.346;8.798;2023-04-25T08:03:27;99655.63;;;12.62;72.16
61384;BME280;63511;49.346;8.798;2023-04-25T08:05:54;99656.75;;;12.85;70.81
61384;BME280;63511;49.346;8.798;2023-04-25T08:08:20;99655.53;;;12.96;71.87
61384;BME280;63511;49.346;8.798;2023-04-25T08:10:47;99666.72;;;13.17;69.71
61384;BME280;63511;49.346;8.798;2023-04-25T08:13:15;99665.53;;;13.28;69.07
61384;BME280;63511;49.346;8.798;2023-04-25T08:15:42;99661.56;;;12.98;68.34
61384;BME280;63511;49.346;8.798;2023-04-25T08:18:09;99673.72;;;13.40;69.04
61384;BME280;63511;49.346;8.798;2023-04-25T08:20:35;99672.00;;;13.04;67.43
61384;BME280;63511;49.346;8.798;2023-04-25T08:23:02;99677.28;;;12.91;69.64
61384;BME280;63511;49.346;8.798;2023-04-25T08:25:28;99677.97;;;13.06;67.14
61384;BME280;63511;49.346;8.798;2023-04-25T08:27:55;99680.47;;;13.04;66.55
61384;BME280;63511;49.346;8.798;2023-04-25T08:30:26;99693.97;;;12.69;67.18
61384;BME280;63511;49.346;8.798;2023-04-25T08:32:53;99691.16;;;13.15;65.36
61384;BME280;63511;49.346;8.798;2023-04-25T08:35:19;99697.72;;;12.94;64.12
61384;BME280;63511;49.346;8.798;2023-04-25T08:37:46;99706.91;;;12.40;66.40
61384;BME280;63511;49.346;8.798;2023-04-25T08:40:14;99711.03;;;12.90;64.96
61384;BME280;63511;49.346;8.798;2023-04-25T08:42:41;99714.41;;;12.90;65.71
61384;BME280;63511;49.346;8.798;2023-04-25T08:45:08;99717.28;;;13.14;64.22
61384;BME280;63511;49.346;8.798;2023-04-25T08:47:37;99714.72;;;12.78;63.46
61384;BME280;63511;49.346;8.798;2023-04-25T08:50:04;99723.03;;;12.58;61.66
61384;BME280;63511;49.346;8.798;2023-04-25T08:52:33;99717.38;;;12.82;63.39
61384;BME280;63511;49.346;8.798;2023-04-25T08:55:01;99731.38;;;13.09;63.01
61384;BME280;63511;49.346;8.798;2023-04-25T08:57:28;99737.47;;;12.61;61.93
61384;BME280;63511;49.346;8.798;2023-04-25T08:59:55;99733.81;;;12.72;61.83
61384;BME280;63511;49.346;8.798;2023-04-25T09:02:23;99735.94;;;12.98;61.47
61384;BME280;63511;49.346;8.798;2023-04-25T09:04:52;99738.97;;;12.91;59.88
61384;BME280;63511;49.346;8.798;2023-04-25T09:07:20;99739.25;;;12.97;59.97
61384;BME280;63511;49.346;8.798;2023-04-25T09:09:47;99748.50;;;13.13;60.99
61384;BME280;63511;49.346;8.798;2023-04-25T09:12:13;99743.44;;;13.31;61.42
61384;BME280;63511;49.346;8.798;2023-04-25T09:14:40;99743.28;;;13.28;60.81
61384;BME280;63511;49.346;8.798;2023-04-25T09:17:07;99757.22;;;13.02;60.56
61384;BME280;63511;49.346;8.798;2023-04-25T09:19:34;99752.50;;;12.92;61.88
61384;BME280;63511;49.346;8.798;2023-04-25T09:22:04;99766.41;;;12.82;62.11
61384;BME280;63511;49.346;8.798;2023-04-25T09:24:31;99760.94;;;13.08;60.86
61384;BME280;63511;49.346;8.798;2023-04-25T09:26:58;99765.53;;;13.15;62.21
61384;BME280;63511;49.346;8.798;2023-04-25T09:29:30;99766.00;;;13.08;62.00
61384;BME280;63511;49.346;8.798;2023-04-25T09:32:13;99769.25;;;13.06;60.77
61384;BME280;63511;49.346;8.798;2023-04-25T09:34:40;99770.13;;;13.06;59.82
61384;BME280;63511;49.346;8.798;2023-04-25T09:37:10;99763.41;;;13.42;59.32
61384;BME280;63511;49.346;8.798;2023-04-25T09:39:37;99770.88;;;13.22;61.94
61384;BME280;63511;49.346;8.798;2023-04-25T09:42:04;99762.53;;;13.59;60.47
61384;BME280;63511;49.346;8.798;2023-04-25T09:44:30;99770.06;;;13.58;58.21
61384;BME280;63511;49.346;8.798;2023-04-25T09:46:57;99772.97;;;13.48;57.81
61384;BME280;63511;49.346;8.798;2023-04-25T09:49:24;99771.47;;;13.88;56.39
61384;BME280;63511;49.346;8.798;2023-04-25T09:51:54;99772.06;;;14.40;58.80
61384;BME280;63511;49.346;8.798;2023-04-25T09:54:23;99775.94;;;14.13;54.95
61384;BME280;63511;49.346;8.798;2023-04-25T09:56:51;99778.59;;;13.78;55.95
61384;BME280;63511;49.346;8.798;2023-04-25T09:59:18;99777.63;;;13.93;55.08
61384;BME280;63511;49.346;8.798;2023-04-25T10:01:46;99777.63;;;13.93;55.18
61384;BME280;63511;49.346;8.798;2023-04-25T10:04:14;99790.03;;;14.07;53.96
61384;BME280;63511;49.346;8.798;2023-04-25T10:06:42;99788.03;;;14.57;53.81
61384;BME280;63511;49.346;8.798;2023-04-25T10:09:09;99779.94;;;14.27;54.95
61384;BME280;63511;49.346;8.798;2023-04-25T10:11:39;99789.91;;;14.61;53.81
61384;BME280;63511;49.346;8.798;2023-04-25T10:14:05;99787.34;;;15.01;54.36
61384;BME280;63511;49.346;8.798;2023-04-25T10:16:32;99795.28;;;14.88;52.33
61384;BME280;63511;49.346;8.798;2023-04-25T10:18:59;99788.63;;;14.71;53.19
61384;BME280;63511;49.346;8.798;2023-04-25T10:21:29;99790.22;;;13.92;53.12
61384;BME280;63511;49.346;8.798;2023-04-25T10:23:57;99797.38;;;14.20;51.92
61384;BME280;63511;49.346;8.798;2023-04-25T10:26:24;99796.94;;;14.28;52.91
61384;BME280;63511;49.346;8.798;2023-04-25T10:28:59;99798.81;;;14.32;51.72
61384;BME280;63511;49.346;8.798;2023-04-25T10:31:27;99803.59;;;14.44;52.18
61384;BME280;63511;49.346;8.798;2023-04-25T10:33:54;99803.94;;;14.15;52.28
61384;BME280;63511;49.346;8.798;2023-04-25T10:36:21;99794.47;;;15.10;52.38
61384;BME280;63511;49.346;8.798;2023-04-25T10:38:49;99798.19;;;14.76;51.67
61384;BME280;63511;49.346;8.798;2023-04-25T10:41:17;99795.97;;;15.05;51.62
61384;BME280;63511;49.346;8.798;2023-04-25T10:43:44;99805.41;;;14.10;51.77
61384;BME280;63511;49.346;8.798;2023-04-25T10:46:16;99812.28;;;14.31;50.81
61384;BME280;63511;49.346;8.798;2023-04-25T10:48:44;99811.63;;;13.79;50.60
61384;BME280;63511;49.346;8.798;2023-04-25T10:51:12;99812.44;;;13.78;48.52
61384;BME280;63511;49.346;8.798;2023-04-25T10:53:43;99822.34;;;14.28;50.74
61384;BME280;63511;49.346;8.798;2023-04-25T10:56:10;99822.94;;;13.86;49.29
61384;BME280;63511;49.346;8.798;2023-04-25T10:58:41;99818.56;;;13.46;50.00
61384;BME280;63511;49.346;8.798;2023-04-25T11:01:08;99824.38;;;13.61;51.65
61384;BME280;63511;49.346;8.798;2023-04-25T11:03:39;99818.97;;;14.10;51.11
61384;BME280;63511;49.346;8.798;2023-04-25T11:06:06;99820.91;;;13.96;51.35
61384;BME280;63511;49.346;8.798;2023-04-25T11:08:41;99820.56;;;14.45;50.92
61384;BME280;63511;49.346;8.798;2023-04-25T11:11:12;99824.69;;;14.81;51.60
61384;BME280;63511;49.346;8.798;2023-04-25T11:13:39;99821.88;;;14.56;49.49
61384;BME280;63511;49.346;8.798;2023-04-25T11:16:06;99823.66;;;14.20;50.89
61384;BME280;63511;49.346;8.798;2023-04-25T11:18:33;99818.88;;;14.45;50.86
61384;BME280;63511;49.346;8.798;2023-04-25T11:21:01;99826.63;;;14.49;53.50
61384;BME280;63511;49.346;8.798;2023-04-25T11:23:28;99831.72;;;14.49;50.82
61384;BME280;63511;49.346;8.798;2023-04-25T11:25:56;99826.22;;;13.83;52.78
61384;BME280;63511;49.346;8.798;2023-04-25T11:28:22;99830.56;;;13.86;53.82
61384;BME280;63511;49.346;8.798;2023-04-25T11:30:49;99835.50;;;13.65;54.13
61384;BME280;63511;49.346;8.798;2023-04-25T11:33:16;99831.19;;;13.99;54.91
61384;BME280;63511;49.346;8.798;2023-04-25T11:35:43;99840.81;;;13.70;55.53
61384;BME280;63511;49.346;8.798;2023-04-25T11:38:14;99844.63;;;14.16;55.37
61384;BME280;63511;49.346;8.798;2023-04-25T11:40:41;99840.47;;;13.62;55.59
61384;BME280;63511;49.346;8.798;2023-04-25T11:43:07;99853.09;;;14.34;54.56
61384;BME280;63511;49.346;8.798;2023-04-25T11:45:36;99839.72;;;14.58;54.63
61384;BME280;63511;49.346;8.798;2023-04-25T11:48:03;99857.06;;;14.10;55.90
61384;BME280;63511;49.346;8.798;2023-04-25T11:50:30;99857.03;;;14.28;55.72
61384;BME280;63511;49.346;8.798;2023-04-25T11:52:56;99857.72;;;14.43;55.03
61384;BME280;63511;49.346;8.798;2023-04-25T11:55:24;99865.22;;;13.85;54.31
61384;BME280;63511;49.346;8.798;2023-04-25T11:57:51;99861.94;;;14.05;54.27
61384;BME280;63511;49.346;8.798;2023-04-25T12:00:18;99865.81;;;13.80;54.39
61384;BME280;63511;49.346;8.798;2023-04-25T12:02:46;99869.44;;;13.85;55.00
61384;BME280;63511;49.346;8.798;2023-04-25T12:05:13;99870.81;;;13.78;53.74
61384;BME280;63511;49.346;8.798;2023-04-25T12:07:40;99870.50;;;14.08;53.03
61384;BME280;63511;49.346;8.798;2023-04-25T12:10:10;99880.09;;;14.15;52.65
61384;BME280;63511;49.346;8.798;2023-04-25T12:12:41;99875.66;;;14.28;53.12
61384;BME280;63511;49.346;8.798;2023-04-25T12:15:08;99873.22;;;15.27;51.50
61384;BME280;63511;49.346;8.798;2023-04-25T12:17:36;99871.25;;;13.70;52.24
61384;BME280;63511;49.346;8.798;2023-04-25T12:20:05;99880.59;;;14.25;52.71
61384;BME280;63511;49.346;8.798;2023-04-25T12:22:32;99876.94;;;14.56;52.38
61384;BME280;63511;49.346;8.798;2023-04-25T12:24:59;99866.75;;;14.75;51.35
61384;BME280;63511;49.346;8.798;2023-04-25T12:27:25;99877.72;;;14.55;51.46
61384;BME280;63511;49.346;8.798;2023-04-25T12:29:55;99873.56;;;14.57;51.20
61384;BME280;63511;49.346;8.798;2023-04-25T12:32:22;99877.31;;;14.09;50.39
61384;BME280;63511;49.346;8.798;2023-04-25T12:34:49;99885.28;;;14.35;51.49
61384;BME280;63511;49.346;8.798;2023-04-25T12:37:15;99880.78;;;14.86;50.94
61384;BME280;63511;49.346;8.798;2023-04-25T12:39:42;99892.03;;;14.72;49.83
61384;BME280;63511;49.346;8.798;2023-04-25T12:42:08;99890.75;;;15.21;49.53
61384;BME280;63511;49.346;8.798;2023-04-25T12:44:36;99894.53;;;14.70;50.19
61384;BME280;63511;49.346;8.798;2023-04-25T12:47:04;99889.56;;;14.17;51.64
61384;BME280;63511;49.346;8.798;2023-04-25T12:49:31;99891.56;;;13.87;50.98
61384;BME280;63511;49.346;8.798;2023-04-25T12:51:58;99891.91;;;13.95;51.37
61384;BME280;63511;49.346;8.798;2023-04-25T12:54:25;99887.88;;;14.18;52.41
61384;BME280;63511;49.346;8.798;2023-04-25T12:56:51;99889.72;;;14.02;52.31
61384;BME280;63511;49.346;8.798;2023-04-25T12:59:18;99902.66;;;14.63;52.43